sensor_id;sensor_type;location;lat;lon;timestamp;temperature;humidity
20512;DHT22;10414;52.074;5.126;2023-03-29T00:00:05;6.90;99.90
20512;DHT22;10414;52.074;5.126;2023-03-29T00:02:37;7.00;99.90
20512;DHT22;10414;52.074;5.126;2023-03-29T00:05:04;6.90;99.90
20512;DHT22;10414;52.074;5.126;2023-03-29T00:07:31;7.10;99.90
20512;DHT22;10414;52.074;5.126;2023-03-29T00:09:59;6.90;99.90
20512;DHT22;10414;52.074;5.126;2023-03-29T00:12:27;6.80;99.90
20512;DHT22;10414;52.074;5.126;2023-03-29T00:14:54;6.90;99.90
20512;DHT22;10414;52.074;5.126;2023-03-29T00:17:21;6.90;99.90
20512;DHT22;10414;52.074;5.126;2023-03-29T00:19:48;6.90;99.90
20512;DHT22;10414;52.074;5.126;2023-03-29T00:22:15;7.00;99.90
20512;DHT22;10414;52.074;5.126;2023-03-29T00:24:42;7.10;99.90
20512;DHT22;10414;52.074;5.126;2023-03-29T00:27:12;7.20;99.90
20512;DHT22;10414;52.074;5.126;2023-03-29T00:29:40;7.10;99.90
20512;DHT22;10414;52.074;5.126;2023-03-29T00:32:07;7.20;99.90
20512;DHT22;10414;52.074;5.126;2023-03-29T00:34:34;7.00;99.90
20512;DHT22;10414;52.074;5.126;2023-03-29T00:37:02;6.90;99.90
20512;DHT22;10414;52.074;5.126;2023-03-29T00:39:31;6.90;99.90
20512;DHT22;10414;52.074;5.126;2023-03-29T00:41:58;6.80;99.90
20512;DHT22;10414;52.074;5.126;2023-03-29T00:45:01;7.00;99.90
20512;DHT22;10414;52.074;5.126;2023-03-29T00:47:33;7.00;99.90
20512;DHT22;10414;52.074;5.126;2023-03-29T00:50:06;7.00;99.90
20512;DHT22;10414;52.074;5.126;2023-03-29T00:52:34;7.10;99.90
20512;DHT22;10414;52.074;5.126;2023-03-29T00:55:08;7.10;99.90
20512;DHT22;10414;52.074;5.126;2023-03-29T00:57:36;7.10;99.90
20512;DHT22;10414;52.074;5.126;2023-03-29T01:00:07;7.10;99.90
20512;DHT22;10414;52.074;5.126;2023-03-29T01:02:37;6.90;99.90
20512;DHT22;10414;52.074;5.126;2023-03-29T01:05:07;7.00;99.90
20512;DHT22;10414;52.074;5.126;2023-03-29T01:07:40;7.00;99.90
20512;DHT22;10414;52.074;5.126;2023-03-29T01:10:10;7.00;99.90
20512;DHT22;10414;52.074;5.126;2023-03-29T01:12:40;7.10;99.90
20512;DHT22;10414;52.074;5.126;2023-03-29T01:15:12;7.30;99.90
20512;DHT22;10414;52.074;5.126;2023-03-29T01:17:40;7.20;99.90
20512;DHT22;10414;52.074;5.126;2023-03-29T01:20:18;7.30;99.90
20512;DHT22;10414;52.074;5.126;2023-03-29T01:23:05;7.20;99.90
20512;DHT22;10414;52.074;5.126;2023-03-29T01:25:37;7.20;99.90
20512;DHT22;10414;52.074;5.126;2023-03-29T01:28:10;7.20;99.90
20512;DHT22;10414;52.074;5.126;2023-03-29T01:30:40;7.30;99.90
20512;DHT22;10414;52.074;5.126;2023-03-29T01:33:12;7.30;99.90
20512;DHT22;10414;52.074;5.126;2023-03-29T01:35:42;7.40;99.90
20512;DHT22;10414;52.074;5.126;2023-03-29T01:38:13;7.50;99.90
20512;DHT22;10414;52.074;5.126;2023-03-29T01:40:41;7.50;99.90
20512;DHT22;10414;52.074;5.126;2023-03-29T01:43:20;7.50;99.90
20512;DHT22;10414;52.074;5.126;2023-03-29T01:45:50;7.60;99.90
20512;DHT22;10414;52.074;5.126;2023-03-29T01:48:25;7.60;99.90
20512;DHT22;10414;52.074;5.126;2023-03-29T01:50:56;7.80;99.90
20512;DHT22;10414;52.074;5.126;2023-03-29T01:53:29;7.80;99.90
20512;DHT22;10414;52.074;5.126;2023-03-29T01:56:01;7.80;99.90
20512;DHT22;10414;52.074;5.126;2023-03-29T01:58:33;7.90;99.90
20512;DHT22;10414;52.074;5.126;2023-03-29T02:01:04;7.90;99.90
20512;DHT22;10414;52.074;5.126;2023-03-29T02:03:34;7.90;99.90
20512;DHT22;10414;52.074;5.126;2023-03-29T02:06:08;8.00;99.90
20512;DHT22;10414;52.074;5.126;2023-03-29T02:08:36;7.80;99.90
20512;DHT22;10414;52.074;5.126;2023-03-29T02:11:03;8.00;99.90
20512;DHT22;10414;52.074;5.126;2023-03-29T02:13:32;8.00;99.90
20512;DHT22;10414;52.074;5.126;2023-03-29T02:15:59;8.00;99.90
20512;DHT22;10414;52.074;5.126;2023-03-29T02:18:27;8.10;99.90
20512;DHT22;10414;52.074;5.126;2023-03-29T02:20:56;8.00;99.90
20512;DHT22;10414;52.074;5.126;2023-03-29T02:23:26;8.00;99.90
20512;DHT22;10414;52.074;5.126;2023-03-29T02:25:53;8.20;99.90
20512;DHT22;10414;52.074;5.126;2023-03-29T02:28:22;8.40;99.90
20512;DHT22;10414;52.074;5.126;2023-03-29T02:30:54;8.50;99.90
20512;DHT22;10414;52.074;5.126;2023-03-29T02:33:25;8.30;99.90
20512;DHT22;10414;52.074;5.126;2023-03-29T02:35:55;8.20;99.90
20512;DHT22;10414;52.074;5.126;2023-03-29T02:38:25;8.00;99.90
20512;DHT22;10414;52.074;5.126;2023-03-29T02:40:53;8.00;99.90
20512;DHT22;10414;52.074;5.126;2023-03-29T02:43:22;8.20;99.90
20512;DHT22;10414;52.074;5.126;2023-03-29T02:45:51;8.20;99.90
20512;DHT22;10414;52.074;5.126;2023-03-29T02:48:20;8.40;99.90
20512;DHT22;10414;52.074;5.126;2023-03-29T02:50:51;8.30;99.90
20512;DHT22;10414;52.074;5.126;2023-03-29T02:53:21;8.40;99.90
20512;DHT22;10414;52.074;5.126;2023-03-29T02:55:50;8.30;99.90
20512;DHT22;10414;52.074;5.126;2023-03-29T02:58:17;8.30;99.90
20512;DHT22;10414;52.074;5.126;2023-03-29T03:00:46;8.20;99.90
20512;DHT22;10414;52.074;5.126;2023-03-29T03:03:15;8.20;99.90
20512;DHT22;10414;52.074;5.126;2023-03-29T03:05:41;8.20;99.90
20512;DHT22;10414;52.074;5.126;2023-03-29T03:08:09;8.20;99.90
20512;DHT22;10414;52.074;5.126;2023-03-29T03:10:36;8.30;99.90
20512;DHT22;10414;52.074;5.126;2023-03-29T03:13:04;8.30;99.90
20512;DHT22;10414;52.074;5.126;2023-03-29T03:15:31;8.20;99.90
20512;DHT22;10414;52.074;5.126;2023-03-29T03:18:00;8.10;99.90
20512;DHT22;10414;52.074;5.126;2023-03-29T03:20:29;8.20;99.90
20512;DHT22;10414;52.074;5.126;2023-03-29T03:22:56;8.00;99.90
20512;DHT22;10414;52.074;5.126;2023-03-29T03:25:23;8.00;99.90
20512;DHT22;10414;52.074;5.126;2023-03-29T03:27:50;8.30;99.90
20512;DHT22;10414;52.074;5.126;2023-03-29T03:30:17;8.20;99.90
20512;DHT22;10414;52.074;5.126;2023-03-29T03:32:45;8.30;99.90
20512;DHT22;10414;52.074;5.126;2023-03-29T03:35:12;8.50;99.90
20512;DHT22;10414;52.074;5.126;2023-03-29T03:37:41;8.30;99.90
20512;DHT22;10414;52.074;5.126;2023-03-29T03:40:08;8.30;99.90
20512;DHT22;10414;52.074;5.126;2023-03-29T03:42:38;8.10;99.90
20512;DHT22;10414;52.074;5.126;2023-03-29T03:45:06;8.10;99.90
20512;DHT22;10414;52.074;5.126;2023-03-29T03:47:33;8.10;99.90
20512;DHT22;10414;52.074;5.126;2023-03-29T03:50:01;8.20;99.90
20512;DHT22;10414;52.074;5.126;2023-03-29T03:52:28;8.10;99.90
20512;DHT22;10414;52.074;5.126;2023-03-29T03:54:56;8.10;99.90
20512;DHT22;10414;52.074;5.126;2023-03-29T03:57:23;8.10;99.90
20512;DHT22;10414;52.074;5.126;2023-03-29T03:59:50;8.00;99.90
20512;DHT22;10414;52.074;5.126;2023-03-29T04:02:17;8.10;99.90
20512;DHT22;10414;52.074;5.126;2023-03-29T04:04:45;8.30;99.90
20512;DHT22;10414;52.074;5.126;2023-03-29T04:07:12;8.30;99.90
20512;DHT22;10414;52.074;5.126;2023-03-29T04:09:39;8.40;99.90
20512;DHT22;10414;52.074;5.126;2023-03-29T04:12:09;8.30;99.90
20512;DHT22;10414;52.074;5.126;2023-03-29T04:14:36;8.40;99.90
20512;DHT22;10414;52.074;5.126;2023-03-29T04:17:03;8.50;99.90
20512;DHT22;10414;52.074;5.126;2023-03-29T04:19:30;8.50;99.90
20512;DHT22;10414;52.074;5.126;2023-03-29T04:21:57;8.30;99.90
20512;DHT22;10414;52.074;5.126;2023-03-29T04:24:24;8.40;99.90
20512;DHT22;10414;52.074;5.126;2023-03-29T04:26:51;8.40;99.90
20512;DHT22;10414;52.074;5.126;2023-03-29T04:29:19;8.40;99.90
20512;DHT22;10414;52.074;5.126;2023-03-29T04:31:46;8.30;99.90
20512;DHT22;10414;52.074;5.126;2023-03-29T04:34:12;8.60;99.90
20512;DHT22;10414;52.074;5.126;2023-03-29T04:36:39;8.60;99.90
20512;DHT22;10414;52.074;5.126;2023-03-29T04:39:06;8.50;99.90
20512;DHT22;10414;52.074;5.126;2023-03-29T04:41:33;8.60;99.90
20512;DHT22;10414;52.074;5.126;2023-03-29T04:44:00;8.70;99.90
20512;DHT22;10414;52.074;5.126;2023-03-29T04:46:30;9.00;99.90
20512;DHT22;10414;52.074;5.126;2023-03-29T04:48:57;8.90;99.90
20512;DHT22;10414;52.074;5.126;2023-03-29T04:51:24;8.80;99.90
20512;DHT22;10414;52.074;5.126;2023-03-29T04:53:51;8.60;99.90
20512;DHT22;10414;52.074;5.126;2023-03-29T04:56:18;8.60;99.90
20512;DHT22;10414;52.074;5.126;2023-03-29T04:58:45;8.50;99.90
20512;DHT22;10414;52.074;5.126;2023-03-29T05:01:12;8.60;99.90
20512;DHT22;10414;52.074;5.126;2023-03-29T05:03:41;8.50;99.90
20512;DHT22;10414;52.074;5.126;2023-03-29T05:06:09;8.40;99.90
20512;DHT22;10414;52.074;5.126;2023-03-29T05:08:37;8.50;99.90
20512;DHT22;10414;52.074;5.126;2023-03-29T05:11:05;8.60;99.90
20512;DHT22;10414;52.074;5.126;2023-03-29T05:13:32;8.50;99.90
20512;DHT22;10414;52.074;5.126;2023-03-29T05:15:59;8.50;99.90
20512;DHT22;10414;52.074;5.126;2023-03-29T05:18:26;8.50;99.90
20512;DHT22;10414;52.074;5.126;2023-03-29T05:20:55;8.50;99.90
20512;DHT22;10414;52.074;5.126;2023-03-29T05:23:23;8.60;99.90
20512;DHT22;10414;52.074;5.126;2023-03-29T05:25:51;8.70;99.90
20512;DHT22;10414;52.074;5.126;2023-03-29T05:28:18;8.70;99.90
20512;DHT22;10414;52.074;5.126;2023-03-29T05:30:46;8.70;99.90
20512;DHT22;10414;52.074;5.126;2023-03-29T05:33:13;8.70;99.90
20512;DHT22;10414;52.074;5.126;2023-03-29T05:35:40;8.50;99.90
20512;DHT22;10414;52.074;5.126;2023-03-29T05:38:09;8.70;99.90
20512;DHT22;10414;52.074;5.126;2023-03-29T05:40:36;8.60;99.90
20512;DHT22;10414;52.074;5.126;2023-03-29T05:43:03;8.50;99.90
20512;DHT22;10414;52.074;5.126;2023-03-29T05:45:29;8.70;99.90
20512;DHT22;10414;52.074;5.126;2023-03-29T05:47:58;8.70;99.90
20512;DHT22;10414;52.074;5.126;2023-03-29T05:50:24;8.60;99.90
20512;DHT22;10414;52.074;5.126;2023-03-29T05:52:51;8.70;99.90
20512;DHT22;10414;52.074;5.126;2023-03-29T05:55:20;8.80;99.90
20512;DHT22;10414;52.074;5.126;2023-03-29T05:57:46;8.80;99.90
20512;DHT22;10414;52.074;5.126;2023-03-29T06:00:14;8.90;99.90
20512;DHT22;10414;52.074;5.126;2023-03-29T06:02:48;8.70;99.90
20512;DHT22;10414;52.074;5.126;2023-03-29T06:05:15;8.70;99.90
20512;DHT22;10414;52.074;5.126;2023-03-29T06:07:42;8.70;99.90
20512;DHT22;10414;52.074;5.126;2023-03-29T06:10:09;8.70;99.90
20512;DHT22;10414;52.074;5.126;2023-03-29T06:12:38;8.70;99.90
20512;DHT22;10414;52.074;5.126;2023-03-29T06:15:05;9.00;99.90
20512;DHT22;10414;52.074;5.126;2023-03-29T06:17:33;9.10;99.90
20512;DHT22;10414;52.074;5.126;2023-03-29T06:20:00;9.10;99.90
20512;DHT22;10414;52.074;5.126;2023-03-29T06:22:29;9.20;99.90
20512;DHT22;10414;52.074;5.126;2023-03-29T06:24:56;9.20;99.90
20512;DHT22;10414;52.074;5.126;2023-03-29T06:27:22;9.40;99.90
20512;DHT22;10414;52.074;5.126;2023-03-29T06:29:51;9.50;99.90
20512;DHT22;10414;52.074;5.126;2023-03-29T06:32:18;9.50;99.90
20512;DHT22;10414;52.074;5.126;2023-03-29T06:34:45;9.40;99.90
20512;DHT22;10414;52.074;5.126;2023-03-29T06:37:12;9.50;99.90
20512;DHT22;10414;52.074;5.126;2023-03-29T06:39:39;9.50;99.90
20512;DHT22;10414;52.074;5.126;2023-03-29T06:42:06;9.60;99.90
20512;DHT22;10414;52.074;5.126;2023-03-29T06:44:34;9.80;99.90
20512;DHT22;10414;52.074;5.126;2023-03-29T06:47:02;10.00;99.90
20512;DHT22;10414;52.074;5.126;2023-03-29T06:49:29;10.30;99.90
20512;DHT22;10414;52.074;5.126;2023-03-29T06:51:56;10.80;99.90
20512;DHT22;10414;52.074;5.126;2023-03-29T06:54:23;10.90;99.90
20512;DHT22;10414;52.074;5.126;2023-03-29T06:56:50;10.60;99.90
20512;DHT22;10414;52.074;5.126;2023-03-29T06:59:17;11.00;99.90
20512;DHT22;10414;52.074;5.126;2023-03-29T07:01:45;10.70;99.90
20512;DHT22;10414;52.074;5.126;2023-03-29T07:04:13;10.30;99.90
20512;DHT22;10414;52.074;5.126;2023-03-29T07:06:40;10.20;99.90
20512;DHT22;10414;52.074;5.126;2023-03-29T07:09:13;10.20;99.90
20512;DHT22;10414;52.074;5.126;2023-03-29T07:11:41;10.20;99.90
20512;DHT22;10414;52.074;5.126;2023-03-29T07:14:08;10.50;99.90
20512;DHT22;10414;52.074;5.126;2023-03-29T07:16:36;10.50;99.90
20512;DHT22;10414;52.074;5.126;2023-03-29T07:19:03;10.60;99.90
20512;DHT22;10414;52.074;5.126;2023-03-29T07:21:32;10.60;99.90
20512;DHT22;10414;52.074;5.126;2023-03-29T07:23:59;10.60;99.90
20512;DHT22;10414;52.074;5.126;2023-03-29T07:26:28;10.50;99.90
20512;DHT22;10414;52.074;5.126;2023-03-29T07:28:56;10.60;99.90
20512;DHT22;10414;52.074;5.126;2023-03-29T07:31:24;10.80;99.90
20512;DHT22;10414;52.074;5.126;2023-03-29T07:33:53;10.80;99.90
20512;DHT22;10414;52.074;5.126;2023-03-29T07:36:20;10.60;99.90
20512;DHT22;10414;52.074;5.126;2023-03-29T07:38:50;10.80;99.90
20512;DHT22;10414;52.074;5.126;2023-03-29T07:41:16;10.80;99.90
20512;DHT22;10414;52.074;5.126;2023-03-29T07:43:43;10.80;99.90
20512;DHT22;10414;52.074;5.126;2023-03-29T07:46:11;11.10;99.90
20512;DHT22;10414;52.074;5.126;2023-03-29T07:48:38;11.00;99.90
20512;DHT22;10414;52.074;5.126;2023-03-29T07:51:06;11.00;99.90
20512;DHT22;10414;52.074;5.126;2023-03-29T07:53:33;11.00;99.90
20512;DHT22;10414;52.074;5.126;2023-03-29T07:56:01;10.90;99.90
20512;DHT22;10414;52.074;5.126;2023-03-29T07:58:29;10.70;99.90
20512;DHT22;10414;52.074;5.126;2023-03-29T08:00:57;10.90;99.90
20512;DHT22;10414;52.074;5.126;2023-03-29T08:03:24;11.20;99.90
20512;DHT22;10414;52.074;5.126;2023-03-29T08:05:52;11.40;99.90
20512;DHT22;10414;52.074;5.126;2023-03-29T08:08:19;11.40;99.90
20512;DHT22;10414;52.074;5.126;2023-03-29T08:10:46;11.30;99.90
20512;DHT22;10414;52.074;5.126;2023-03-29T08:13:14;11.40;99.90
20512;DHT22;10414;52.074;5.126;2023-03-29T08:15:43;11.50;99.90
20512;DHT22;10414;52.074;5.126;2023-03-29T08:18:11;11.50;99.90
20512;DHT22;10414;52.074;5.126;2023-03-29T08:20:38;11.40;99.90
20512;DHT22;10414;52.074;5.126;2023-03-29T08:23:05;11.40;99.90
20512;DHT22;10414;52.074;5.126;2023-03-29T08:25:32;11.50;99.90
20512;DHT22;10414;52.074;5.126;2023-03-29T08:27:59;11.50;99.90
20512;DHT22;10414;52.074;5.126;2023-03-29T08:30:27;11.80;99.90
20512;DHT22;10414;52.074;5.126;2023-03-29T08:32:54;12.00;99.90
20512;DHT22;10414;52.074;5.126;2023-03-29T08:35:21;12.00;99.90
20512;DHT22;10414;52.074;5.126;2023-03-29T08:37:48;12.20;99.90
20512;DHT22;10414;52.074;5.126;2023-03-29T08:40:19;12.00;99.90
20512;DHT22;10414;52.074;5.126;2023-03-29T08:46:01;11.80;99.90
20512;DHT22;10414;52.074;5.126;2023-03-29T08:48:31;12.00;99.90
20512;DHT22;10414;52.074;5.126;2023-03-29T08:51:02;12.10;99.90
20512;DHT22;10414;52.074;5.126;2023-03-29T08:53:33;12.20;99.90
20512;DHT22;10414;52.074;5.126;2023-03-29T08:56:05;12.30;99.90
20512;DHT22;10414;52.074;5.126;2023-03-29T08:58:35;12.60;99.90
20512;DHT22;10414;52.074;5.126;2023-03-29T09:01:05;12.20;99.90
20512;DHT22;10414;52.074;5.126;2023-03-29T09:03:35;12.20;99.90
20512;DHT22;10414;52.074;5.126;2023-03-29T09:06:04;12.30;99.90
20512;DHT22;10414;52.074;5.126;2023-03-29T09:08:32;12.40;99.90
20512;DHT22;10414;52.074;5.126;2023-03-29T09:11:13;12.80;99.90
20512;DHT22;10414;52.074;5.126;2023-03-29T09:13:51;12.90;99.90
20512;DHT22;10414;52.074;5.126;2023-03-29T09:16:24;12.90;99.90
20512;DHT22;10414;52.074;5.126;2023-03-29T09:19:01;13.20;99.90
20512;DHT22;10414;52.074;5.126;2023-03-29T09:21:37;12.80;99.90
20512;DHT22;10414;52.074;5.126;2023-03-29T09:24:17;12.90;99.90
20512;DHT22;10414;52.074;5.126;2023-03-29T09:26:50;12.50;99.90
20512;DHT22;10414;52.074;5.126;2023-03-29T09:29:31;12.70;99.90
20512;DHT22;10414;52.074;5.126;2023-03-29T09:32:03;13.00;99.90
20512;DHT22;10414;52.074;5.126;2023-03-29T09:34:35;12.80;99.90
20512;DHT22;10414;52.074;5.126;2023-03-29T09:37:09;12.80;99.90
20512;DHT22;10414;52.074;5.126;2023-03-29T09:39:38;12.80;99.90
20512;DHT22;10414;52.074;5.126;2023-03-29T09:42:07;12.90;99.90
20512;DHT22;10414;52.074;5.126;2023-03-29T09:44:36;13.10;99.90
20512;DHT22;10414;52.074;5.126;2023-03-29T09:47:08;13.30;99.90
20512;DHT22;10414;52.074;5.126;2023-03-29T09:49:41;13.60;99.90
20512;DHT22;10414;52.074;5.126;2023-03-29T09:52:12;13.90;99.90
20512;DHT22;10414;52.074;5.126;2023-03-29T09:54:39;14.20;99.90
20512;DHT22;10414;52.074;5.126;2023-03-29T09:57:09;14.20;99.90
20512;DHT22;10414;52.074;5.126;2023-03-29T09:59:36;13.90;99.90
20512;DHT22;10414;52.074;5.126;2023-03-29T10:02:10;14.00;99.90
20512;DHT22;10414;52.074;5.126;2023-03-29T10:04:37;13.90;99.90
20512;DHT22;10414;52.074;5.126;2023-03-29T10:07:06;14.20;99.90
20512;DHT22;10414;52.074;5.126;2023-03-29T10:09:34;14.30;99.90
20512;DHT22;10414;52.074;5.126;2023-03-29T10:12:05;14.50;99.90
20512;DHT22;10414;52.074;5.126;2023-03-29T10:14:34;14.70;99.90
20512;DHT22;10414;52.074;5.126;2023-03-29T10:17:05;14.70;99.90
20512;DHT22;10414;52.074;5.126;2023-03-29T10:19:46;14.40;99.90
20512;DHT22;10414;52.074;5.126;2023-03-29T10:22:17;14.30;99.90
20512;DHT22;10414;52.074;5.126;2023-03-29T10:24:48;14.20;99.90
20512;DHT22;10414;52.074;5.126;2023-03-29T10:27:19;14.50;99.90
20512;DHT22;10414;52.074;5.126;2023-03-29T10:29:46;14.70;99.90
20512;DHT22;10414;52.074;5.126;2023-03-29T10:32:15;14.40;99.90
20512;DHT22;10414;52.074;5.126;2023-03-29T10:34:45;13.80;99.90
20512;DHT22;10414;52.074;5.126;2023-03-29T10:37:13;13.60;99.90
20512;DHT22;10414;52.074;5.126;2023-03-29T10:39:41;13.50;99.90
20512;DHT22;10414;52.074;5.126;2023-03-29T10:42:12;13.40;99.90
20512;DHT22;10414;52.074;5.126;2023-03-29T10:44:40;13.80;99.90
20512;DHT22;10414;52.074;5.126;2023-03-29T10:47:08;13.90;99.90
20512;DHT22;10414;52.074;5.126;2023-03-29T10:49:39;13.70;99.90
20512;DHT22;10414;52.074;5.126;2023-03-29T10:52:08;13.10;99.90
20512;DHT22;10414;52.074;5.126;2023-03-29T10:54:35;12.90;99.90
20512;DHT22;10414;52.074;5.126;2023-03-29T10:57:04;12.80;99.90
20512;DHT22;10414;52.074;5.126;2023-03-29T10:59:39;12.90;99.90
20512;DHT22;10414;52.074;5.126;2023-03-29T11:05:28;13.80;99.90
20512;DHT22;10414;52.074;5.126;2023-03-29T11:08:11;13.50;99.90
20512;DHT22;10414;52.074;5.126;2023-03-29T11:10:52;13.60;99.90
20512;DHT22;10414;52.074;5.126;2023-03-29T11:13:25;13.60;99.90
20512;DHT22;10414;52.074;5.126;2023-03-29T11:16:03;14.10;99.90
20512;DHT22;10414;52.074;5.126;2023-03-29T11:18:55;14.10;99.90
20512;DHT22;10414;52.074;5.126;2023-03-29T11:21:30;14.60;99.90
20512;DHT22;10414;52.074;5.126;2023-03-29T11:24:16;14.20;99.90
20512;DHT22;10414;52.074;5.126;2023-03-29T11:26:54;14.10;99.90
20512;DHT22;10414;52.074;5.126;2023-03-29T11:29:27;13.80;99.90
20512;DHT22;10414;52.074;5.126;2023-03-29T11:32:00;13.90;99.90
20512;DHT22;10414;52.074;5.126;2023-03-29T11:34:37;14.20;99.90
20512;DHT22;10414;52.074;5.126;2023-03-29T11:37:16;14.20;99.90
20512;DHT22;10414;52.074;5.126;2023-03-29T11:39:55;14.40;99.90
20512;DHT22;10414;52.074;5.126;2023-03-29T11:42:28;14.50;99.90
20512;DHT22;10414;52.074;5.126;2023-03-29T11:44:58;14.10;99.90
20512;DHT22;10414;52.074;5.126;2023-03-29T11:47:28;14.10;99.90
20512;DHT22;10414;52.074;5.126;2023-03-29T11:49:58;14.20;99.90
20512;DHT22;10414;52.074;5.126;2023-03-29T11:52:29;14.40;99.90
20512;DHT22;10414;52.074;5.126;2023-03-29T11:55:03;14.30;99.90
20512;DHT22;10414;52.074;5.126;2023-03-29T11:57:34;14.20;99.90
20512;DHT22;10414;52.074;5.126;2023-03-29T12:00:05;14.10;99.90
20512;DHT22;10414;52.074;5.126;2023-03-29T12:02:35;14.30;99.90
20512;DHT22;10414;52.074;5.126;2023-03-29T12:05:10;14.40;99.90
20512;DHT22;10414;52.074;5.126;2023-03-29T12:07:42;14.30;99.90
20512;DHT22;10414;52.074;5.126;2023-03-29T12:10:17;14.10;99.90
20512;DHT22;10414;52.074;5.126;2023-03-29T12:12:49;14.00;99.90
20512;DHT22;10414;52.074;5.126;2023-03-29T12:15:20;13.60;99.90
20512;DHT22;10414;52.074;5.126;2023-03-29T12:17:59;13.20;99.90
20512;DHT22;10414;52.074;5.126;2023-03-29T12:20:29;13.00;99.90
20512;DHT22;10414;52.074;5.126;2023-03-29T12:22:58;12.90;99.90
20512;DHT22;10414;52.074;5.126;2023-03-29T12:25:30;12.80;99.90
20512;DHT22;10414;52.074;5.126;2023-03-29T12:28:11;12.90;99.90
20512;DHT22;10414;52.074;5.126;2023-03-29T12:30:55;12.90;99.90
20512;DHT22;10414;52.074;5.126;2023-03-29T12:33:42;13.00;99.90
20512;DHT22;10414;52.074;5.126;2023-03-29T12:36:39;13.30;99.90
20512;DHT22;10414;52.074;5.126;2023-03-29T12:39:12;13.20;99.90
20512;DHT22;10414;52.074;5.126;2023-03-29T12:41:41;13.20;99.90
20512;DHT22;10414;52.074;5.126;2023-03-29T12:44:14;13.50;99.90
20512;DHT22;10414;52.074;5.126;2023-03-29T12:46:42;13.60;99.90
20512;DHT22;10414;52.074;5.126;2023-03-29T12:49:13;13.90;99.90
20512;DHT22;10414;52.074;5.126;2023-03-29T12:51:43;14.20;99.90
20512;DHT22;10414;52.074;5.126;2023-03-29T12:54:14;14.80;99.90
20512;DHT22;10414;52.074;5.126;2023-03-29T12:56:53;15.00;99.90
20512;DHT22;10414;52.074;5.126;2023-03-29T12:59:25;15.20;99.90
20512;DHT22;10414;52.074;5.126;2023-03-29T13:01:58;15.50;99.90
20512;DHT22;10414;52.074;5.126;2023-03-29T13:04:36;15.60;99.90
20512;DHT22;10414;52.074;5.126;2023-03-29T13:07:09;15.50;99.90
20512;DHT22;10414;52.074;5.126;2023-03-29T13:09:48;15.10;99.90
20512;DHT22;10414;52.074;5.126;2023-03-29T13:12:24;15.50;99.90
20512;DHT22;10414;52.074;5.126;2023-03-29T13:14:53;16.10;99.90
20512;DHT22;10414;52.074;5.126;2023-03-29T13:17:26;15.70;99.90
20512;DHT22;10414;52.074;5.126;2023-03-29T13:20:08;15.60;99.90
20512;DHT22;10414;52.074;5.126;2023-03-29T13:22:46;15.70;99.90
20512;DHT22;10414;52.074;5.126;2023-03-29T13:25:24;16.00;99.90
20512;DHT22;10414;52.074;5.126;2023-03-29T13:28:00;16.10;99.90
20512;DHT22;10414;52.074;5.126;2023-03-29T13:30:43;16.10;99.90
20512;DHT22;10414;52.074;5.126;2023-03-29T13:36:02;15.80;99.90
20512;DHT22;10414;52.074;5.126;2023-03-29T13:38:31;15.50;99.90
20512;DHT22;10414;52.074;5.126;2023-03-29T13:41:24;15.80;99.90
20512;DHT22;10414;52.074;5.126;2023-03-29T13:43:55;16.10;99.90
20512;DHT22;10414;52.074;5.126;2023-03-29T13:46:34;15.90;99.90
20512;DHT22;10414;52.074;5.126;2023-03-29T13:49:12;16.00;99.90
20512;DHT22;10414;52.074;5.126;2023-03-29T13:51:41;16.20;99.90
20512;DHT22;10414;52.074;5.126;2023-03-29T13:54:22;17.00;99.90
20512;DHT22;10414;52.074;5.126;2023-03-29T13:57:04;17.60;99.90
20512;DHT22;10414;52.074;5.126;2023-03-29T13:59:42;17.70;99.90
20512;DHT22;10414;52.074;5.126;2023-03-29T14:02:19;17.40;99.90
20512;DHT22;10414;52.074;5.126;2023-03-29T14:04:49;17.30;99.90
20512;DHT22;10414;52.074;5.126;2023-03-29T14:07:19;17.40;99.90
20512;DHT22;10414;52.074;5.126;2023-03-29T14:09:51;17.00;99.90
20512;DHT22;10414;52.074;5.126;2023-03-29T14:12:19;16.40;99.90
20512;DHT22;10414;52.074;5.126;2023-03-29T14:14:47;16.20;99.90
20512;DHT22;10414;52.074;5.126;2023-03-29T14:17:17;16.10;99.90
20512;DHT22;10414;52.074;5.126;2023-03-29T14:19:44;16.50;99.90
20512;DHT22;10414;52.074;5.126;2023-03-29T14:22:13;16.70;99.90
20512;DHT22;10414;52.074;5.126;2023-03-29T14:24:45;16.40;99.90
20512;DHT22;10414;52.074;5.126;2023-03-29T14:27:15;16.60;99.90
20512;DHT22;10414;52.074;5.126;2023-03-29T14:29:44;16.90;99.90
20512;DHT22;10414;52.074;5.126;2023-03-29T14:32:15;16.60;99.90
20512;DHT22;10414;52.074;5.126;2023-03-29T14:34:42;16.30;99.90
20512;DHT22;10414;52.074;5.126;2023-03-29T14:37:10;16.30;99.90
20512;DHT22;10414;52.074;5.126;2023-03-29T14:39:38;15.90;99.90
20512;DHT22;10414;52.074;5.126;2023-03-29T14:42:13;15.80;99.90
20512;DHT22;10414;52.074;5.126;2023-03-29T14:44:42;16.30;99.90
20512;DHT22;10414;52.074;5.126;2023-03-29T14:47:17;16.50;99.90
20512;DHT22;10414;52.074;5.126;2023-03-29T14:49:46;16.60;99.90
20512;DHT22;10414;52.074;5.126;2023-03-29T14:52:13;16.30;99.90
20512;DHT22;10414;52.074;5.126;2023-03-29T14:54:45;16.00;99.90
20512;DHT22;10414;52.074;5.126;2023-03-29T14:57:14;16.20;99.90
20512;DHT22;10414;52.074;5.126;2023-03-29T14:59:47;17.00;99.90
20512;DHT22;10414;52.074;5.126;2023-03-29T15:02:25;17.50;99.90
20512;DHT22;10414;52.074;5.126;2023-03-29T15:04:57;17.40;99.90
20512;DHT22;10414;52.074;5.126;2023-03-29T15:07:25;17.40;99.90
20512;DHT22;10414;52.074;5.126;2023-03-29T15:09:54;17.40;99.90
20512;DHT22;10414;52.074;5.126;2023-03-29T15:12:21;17.80;99.90
20512;DHT22;10414;52.074;5.126;2023-03-29T15:14:49;17.70;99.90
20512;DHT22;10414;52.074;5.126;2023-03-29T15:17:27;17.30;99.90
20512;DHT22;10414;52.074;5.126;2023-03-29T15:19:59;17.20;99.90
20512;DHT22;10414;52.074;5.126;2023-03-29T15:22:32;17.50;99.90
20512;DHT22;10414;52.074;5.126;2023-03-29T15:24:59;17.40;99.90
20512;DHT22;10414;52.074;5.126;2023-03-29T15:27:26;17.90;99.90
20512;DHT22;10414;52.074;5.126;2023-03-29T15:29:59;17.20;99.90
20512;DHT22;10414;52.074;5.126;2023-03-29T15:32:34;16.80;99.90
20512;DHT22;10414;52.074;5.126;2023-03-29T15:35:05;16.50;99.90
20512;DHT22;10414;52.074;5.126;2023-03-29T15:37:34;16.40;99.90
20512;DHT22;10414;52.074;5.126;2023-03-29T15:40:01;16.20;99.90
20512;DHT22;10414;52.074;5.126;2023-03-29T15:42:34;16.40;99.90
20512;DHT22;10414;52.074;5.126;2023-03-29T15:45:03;16.40;99.90
20512;DHT22;10414;52.074;5.126;2023-03-29T15:47:32;16.40;99.90
20512;DHT22;10414;52.074;5.126;2023-03-29T15:49:59;16.10;99.90
20512;DHT22;10414;52.074;5.126;2023-03-29T15:52:25;16.00;99.90
20512;DHT22;10414;52.074;5.126;2023-03-29T15:54:52;16.00;99.90
20512;DHT22;10414;52.074;5.126;2023-03-29T15:57:19;16.10;99.90
20512;DHT22;10414;52.074;5.126;2023-03-29T15:59:46;16.30;99.90
20512;DHT22;10414;52.074;5.126;2023-03-29T16:02:14;16.20;99.90
20512;DHT22;10414;52.074;5.126;2023-03-29T16:04:42;15.90;99.90